createdAt,value
2022-10-06T06:15:07.261Z,14.71
2022-10-06T06:25:06.956Z,14.10
2022-10-06T06:35:06.994Z,15.02
2022-10-06T06:45:07.104Z,16.23
2022-10-06T06:55:07.167Z,15.15
2022-10-06T07:05:07.293Z,15.95
2022-10-06T07:15:07.169Z,17.29
2022-10-06T07:25:07.172Z,18.17
2022-10-06T07:35:07.218Z,17.01
2022-10-06T07:45:07.132Z,18.08
2022-10-06T07:55:07.226Z,18.74
2022-10-06T08:05:07.278Z,18.62
2022-10-06T08:15:07.711Z,18.74
2022-10-06T08:25:07.605Z,19.36
2022-10-06T08:35:07.218Z,15.14
2022-10-06T08:45:07.510Z,16.97
2022-10-06T08:55:07.556Z,21.59
2022-10-06T09:05:07.452Z,17.97
2022-10-06T09:15:07.493Z,17.29
2022-10-06T09:25:07.329Z,18.28
2022-10-06T09:35:07.510Z,16.95
2022-10-06T09:45:07.299Z,19.62
2022-10-06T09:55:07.274Z,16.91
2022-10-06T10:05:07.510Z,19.25
2022-10-06T10:15:07.382Z,21.27
2022-10-06T10:25:07.307Z,21.13
2022-10-06T10:35:07.538Z,22.43
2022-10-06T10:45:07.338Z,18.87
2022-10-06T10:55:07.697Z,16.94
2022-10-06T11:05:07.713Z,19.98
2022-10-06T11:15:07.610Z,18.15
2022-10-06T11:35:07.441Z,16.94
2022-10-06T11:45:08.579Z,14.66
2022-10-06T11:55:07.569Z,20.53
2022-10-06T12:05:18.169Z,19.12
2022-10-06T12:25:07.533Z,16.73
2022-10-06T12:35:07.542Z,16.74
2022-10-06T12:45:07.664Z,12.04
2022-10-06T12:55:07.655Z,16.38
2022-10-06T13:05:07.588Z,13.68
2022-10-06T13:15:07.614Z,14.81
2022-10-06T13:25:07.640Z,13.76
2022-10-06T13:35:07.609Z,16.17
2022-10-06T13:45:07.548Z,14.57
2022-10-06T13:55:07.523Z,14.23
2022-10-06T14:05:07.681Z,14.26
2022-10-06T14:15:07.744Z,18.66
2022-10-06T14:25:07.538Z,17.45
2022-10-06T14:35:07.638Z,13.11
2022-10-06T14:45:07.561Z,15.98
2022-10-06T14:55:07.506Z,15.70
2022-10-06T15:05:07.649Z,13.26
2022-10-06T15:15:07.596Z,13.36
2022-10-06T15:25:07.707Z,14.43
2022-10-06T15:35:07.533Z,12.76
2022-10-06T15:45:07.847Z,10.91
2022-10-06T15:55:07.728Z,11.62
2022-10-06T16:05:07.548Z,10.14
2022-10-06T16:15:07.745Z,9.86
2022-10-06T16:25:07.894Z,10.94
2022-10-06T16:35:07.662Z,7.63
2022-10-06T16:45:07.795Z,6.09
2022-10-06T16:55:07.805Z,5.70
2022-10-06T17:05:07.765Z,5.19
2022-10-06T17:15:07.721Z,5.59
2022-10-06T17:25:07.770Z,6.50
2022-10-06T17:35:07.655Z,6.37
2022-10-06T17:45:07.733Z,6.66
2022-10-06T17:55:07.911Z,6.10
2022-10-06T18:05:07.797Z,4.16
2022-10-06T18:15:07.763Z,3.84
2022-10-06T18:25:07.982Z,2.79
2022-10-06T18:45:07.745Z,6.28
2022-10-06T18:55:07.884Z,4.90
2022-10-06T19:05:07.780Z,3.20
2022-10-06T19:15:07.887Z,3.43
